Time;durP1;ratioP1;P1;durP2;ratioP2;P2;SDS_P1;SDS_P2;PMS_P1;PMS_P2;Temp;Humidity;BMP_temperature;BMP_pressure;BME280_temperature;BME280_humidity;BME280_pressure;Samples;Min_cycle;Max_cycle;Signal;HPM_P1;HPM_P2
2022/04/16 00:00:58;;;;;;;45.75;25.27;;;12.40;1.00;;;;;;5034324;28;20045;-76
2022/04/16 00:03:26;;;;;;;39.63;24.38;;;12.20;1.00;;;;;;5035775;28;20405;-76
2022/04/16 00:05:55;;;;;;;48.92;24.05;;;12.10;1.00;;;;;;5019168;28;20421;-76
2022/04/16 00:08:23;;;;;;;36.88;22.75;;;12.10;1.00;;;;;;5035424;28;20045;-76
2022/04/16 00:10:51;;;;;;;38.00;23.83;;;12.10;1.00;;;;;;5034033;28;20409;-76
2022/04/16 00:13:19;;;;;;;39.40;22.75;;;12.10;1.00;;;;;;5033509;28;20417;-75
2022/04/16 00:15:49;;;;;;;38.40;23.42;;;12.10;1.00;;;;;;5033935;28;20058;-75
2022/04/16 00:18:18;;;;;;;38.92;22.52;;;12.10;1.00;;;;;;5033266;28;20416;-76
2022/04/16 00:20:47;;;;;;;38.15;21.75;;;12.10;1.00;;;;;;5034975;28;20065;-76
2022/04/16 00:23:14;;;;;;;37.88;22.70;;;12.10;1.00;;;;;;5034423;28;20417;-77
2022/04/16 00:25:42;;;;;;;35.08;22.48;;;12.00;1.00;;;;;;5034400;28;20042;-76
2022/04/16 00:28:09;;;;;;;40.70;23.52;;;11.90;1.00;;;;;;5034054;28;20084;-76
2022/04/16 00:30:39;;;;;;;44.53;23.60;;;11.80;23.90;;;;;;5034648;28;20044;-76
2022/04/16 00:33:07;;;;;;;37.25;21.08;;;11.80;75.20;;;;;;5033936;28;20048;-77
2022/04/16 00:35:37;;;;;;;32.40;20.27;;;11.80;99.90;;;;;;5034201;28;20052;-76
2022/04/16 00:38:05;;;;;;;35.53;19.50;;;11.80;99.90;;;;;;5033945;28;20065;-76
2022/04/16 00:40:32;;;;;;;35.50;19.65;;;11.80;99.90;;;;;;5033662;28;20041;-77
2022/04/16 00:43:00;;;;;;;30.20;18.00;;;11.80;99.90;;;;;;5032439;28;20119;-76
2022/04/16 00:45:28;;;;;;;29.40;18.25;;;11.90;40.60;;;;;;5034027;28;20050;-75
2022/04/16 00:47:55;;;;;;;31.98;19.58;;;11.80;1.00;;;;;;5033752;28;20073;-76
2022/04/16 00:50:23;;;;;;;33.72;20.15;;;11.90;16.50;;;;;;5032717;28;20048;-75
2022/04/16 00:52:52;;;;;;;34.67;20.02;;;11.80;3.30;;;;;;5033474;28;20044;-76
2022/04/16 00:55:19;;;;;;;37.78;20.48;;;11.90;21.60;;;;;;5033976;28;20045;-77
2022/04/16 00:57:47;;;;;;;38.45;21.85;;;11.90;1.00;;;;;;5033648;28;20038;-77
2022/04/16 01:00:15;;;;;;;31.67;19.58;;;11.90;1.00;;;;;;5032671;28;20037;-74
2022/04/16 01:02:43;;;;;;;36.42;20.38;;;11.90;1.00;;;;;;5032090;28;20072;-75
2022/04/16 01:05:12;;;;;;;29.98;18.60;;;11.80;1.00;;;;;;5034181;28;20041;-77
2022/04/16 01:07:53;;;;;;;30.02;17.33;;;11.90;1.00;;;;;;5033503;28;20050;-76
2022/04/16 01:10:24;;;;;;;29.25;16.65;;;11.80;1.00;;;;;;5034942;28;20092;-77
2022/04/16 01:12:51;;;;;;;30.45;17.33;;;11.80;1.00;;;;;;5040197;28;20053;-76
2022/04/16 01:15:20;;;;;;;31.70;17.70;;;11.80;1.00;;;;;;5041980;28;20050;-76
2022/04/16 01:17:48;;;;;;;28.65;15.63;;;11.80;1.00;;;;;;5039137;28;20046;-76
2022/04/16 01:20:16;;;;;;;28.05;15.65;;;11.80;7.10;;;;;;5039535;28;20037;-75
2022/04/16 01:22:46;;;;;;;28.50;16.23;;;11.80;56.70;;;;;;5038006;28;20512;-76
2022/04/16 01:25:13;;;;;;;32.20;16.77;;;11.80;55.40;;;;;;5037967;28;20079;-75
2022/04/16 01:27:43;;;;;;;27.60;16.38;;;11.80;86.10;;;;;;5037919;28;20053;-76
2022/04/16 01:30:11;;;;;;;28.30;16.63;;;11.90;56.00;;;;;;5037596;28;20409;-76
2022/04/16 01:32:40;;;;;;;30.42;17.08;;;11.80;53.90;;;;;;5037802;28;20076;-76
2022/04/16 01:35:08;;;;;;;26.92;16.65;;;11.80;34.30;;;;;;5038508;28;20045;-76
2022/04/16 01:37:37;;;;;;;31.77;17.38;;;11.80;45.30;;;;;;5039292;28;20056;-76
2022/04/16 01:40:08;;;;;;;31.35;16.63;;;11.80;46.70;;;;;;5057206;28;20051;-75
2022/04/16 01:42:36;;;;;;;29.38;18.05;;;11.80;74.70;;;;;;5052665;28;20044;-75
2022/04/16 01:45:03;;;;;;;31.60;17.75;;;11.80;97.70;;;;;;5058811;28;20128;-77
2022/04/16 01:47:31;;;;;;;30.02;17.23;;;11.70;99.90;;;;;;5059699;28;20049;-77
2022/04/16 01:49:58;;;;;;;29.65;16.08;;;11.70;99.90;;;;;;5067709;28;20037;-77
2022/04/16 01:52:26;;;;;;;30.88;16.73;;;11.80;99.90;;;;;;5053771;28;20122;-76
2022/04/16 01:54:54;;;;;;;30.65;15.35;;;11.70;99.90;;;;;;5043682;28;20056;-76
2022/04/16 01:57:23;;;;;;;25.70;14.93;;;11.70;99.90;;;;;;5069760;28;20105;-77
2022/04/16 01:59:50;;;;;;;23.15;14.02;;;11.70;99.90;;;;;;5062677;28;20021;-76
2022/04/16 02:02:19;;;;;;;25.27;14.38;;;11.70;99.90;;;;;;5056533;28;20049;-76
2022/04/16 02:04:47;;;;;;;29.45;16.38;;;11.70;99.90;;;;;;5056300;28;20044;-77
2022/04/16 02:07:14;;;;;;;24.65;15.80;;;11.70;99.90;;;;;;5058542;28;20045;-76
2022/04/16 02:09:42;;;;;;;26.98;16.10;;;11.60;99.90;;;;;;5057553;28;20056;-76
2022/04/16 02:12:10;;;;;;;28.88;16.52;;;11.50;99.90;;;;;;5056737;28;20041;-76
2022/04/16 02:14:39;;;;;;;26.42;16.95;;;11.50;99.90;;;;;;5055807;28;20045;-77
2022/04/16 02:17:07;;;;;;;25.70;16.58;;;11.40;99.90;;;;;;5043139;28;20068;-77
2022/04/16 02:19:36;;;;;;;31.35;18.45;;;11.20;1.00;;;;;;5056274;28;20091;-77
2022/04/16 02:22:05;;;;;;;31.77;17.23;;;11.20;1.00;;;;;;5056175;28;20492;-76
2022/04/16 02:24:32;;;;;;;29.95;17.90;;;11.10;1.00;;;;;;5054914;28;20049;-75
2022/04/16 02:26:59;;;;;;;27.45;17.30;;;11.20;1.00;;;;;;5057145;28;20437;-76
2022/04/16 02:29:27;;;;;;;34.08;16.63;;;11.20;1.00;;;;;;5056477;28;20087;-76
2022/04/16 02:31:56;;;;;;;30.65;16.23;;;11.30;1.00;;;;;;5055999;28;20045;-76
2022/04/16 02:34:23;;;;;;;31.95;16.95;;;11.30;1.00;;;;;;5057946;28;20487;-76
2022/04/16 02:36:50;;;;;;;28.33;15.95;;;11.30;1.00;;;;;;5068869;28;20048;-76
2022/04/16 02:39:18;;;;;;;31.13;16.85;;;11.40;1.00;;;;;;5079860;28;20055;-76
2022/04/16 02:41:45;;;;;;;30.15;17.20;;;11.40;1.00;;;;;;5080121;28;20082;-76
2022/04/16 02:47:05;;;;;;;28.25;15.88;;;11.50;1.00;;;;;;5079651;28;20043;-76
2022/04/16 02:47:06;;;;;;;24.13;14.73;;;11.40;1.00;;;;;;5073806;28;20044;-76
2022/04/16 02:49:36;;;;;;;31.95;17.02;;;11.40;1.00;;;;;;5076063;28;20400;-76
2022/04/16 02:52:04;;;;;;;26.20;16.52;;;11.30;1.00;;;;;;5074274;28;20472;-75
2022/04/16 02:54:31;;;;;;;32.75;17.88;;;11.20;1.00;;;;;;5075396;28;20048;-76
2022/04/16 02:56:59;;;;;;;28.02;16.60;;;11.20;1.00;;;;;;5076027;28;20476;-76
2022/04/16 02:59:27;;;;;;;25.25;16.08;;;11.20;1.00;;;;;;5076845;28;20033;-77
2022/04/16 03:01:55;;;;;;;29.42;17.35;;;11.20;1.00;;;;;;5074729;28;20414;-75
2022/04/16 03:04:26;;;;;;;27.08;17.45;;;11.10;1.00;;;;;;5074226;28;20118;-76
2022/04/16 03:06:53;;;;;;;29.45;17.15;;;11.00;1.00;;;;;;5073519;28;20039;-77
2022/04/16 03:09:22;;;;;;;27.30;16.42;;;11.00;88.70;;;;;;5038151;28;20052;-75
2022/04/16 03:11:49;;;;;;;28.30;16.67;;;11.00;99.90;;;;;;5054924;28;20048;-75
2022/04/16 03:19:48;;;;;;;24.52;15.10;;;11.30;1.00;;;;;;5054836;28;20092;-78
2022/04/16 03:22:15;;;;;;;28.52;16.88;;;11.50;1.00;;;;;;5054196;28;20041;-76
2022/04/16 03:24:43;;;;;;;26.10;16.13;;;11.50;1.00;;;;;;5036514;28;20057;-76
2022/04/16 03:27:10;;;;;;;25.75;15.20;;;11.60;1.00;;;;;;5036557;28;20045;-75
2022/04/16 03:29:37;;;;;;;27.70;16.27;;;11.60;1.00;;;;;;5038062;28;20045;-76
2022/04/16 03:32:06;;;;;;;29.10;18.27;;;11.60;1.00;;;;;;5056100;28;20103;-76
2022/04/16 03:34:33;;;;;;;33.13;19.05;;;11.60;1.00;;;;;;5055854;28;20040;-76
2022/04/16 03:37:02;;;;;;;29.67;19.55;;;11.70;1.00;;;;;;5044142;28;20103;-77
2022/04/16 03:39:30;;;;;;;38.95;24.08;;;11.70;1.00;;;;;;5018299;28;20512;-77
2022/04/16 03:41:57;;;;;;;47.05;32.35;;;11.70;1.00;;;;;;5035465;28;20037;-77
2022/04/16 03:44:24;;;;;;;38.38;25.30;;;11.80;1.00;;;;;;5017920;28;20053;-76
2022/04/16 03:46:52;;;;;;;31.75;21.83;;;11.70;1.00;;;;;;5035761;28;20045;-76
2022/04/16 03:49:19;;;;;;;29.90;18.65;;;11.60;1.00;;;;;;5036228;28;20067;-77
2022/04/16 03:51:47;;;;;;;27.23;17.85;;;11.60;1.00;;;;;;5036341;28;20103;-77
2022/04/16 04:00:05;;;;;;;47.35;27.45;;;11.70;1.00;;;;;;5038073;28;20353;-77
2022/04/16 04:02:39;;;;;;;49.80;26.52;;;11.80;1.00;;;;;;5035533;28;20119;-77
2022/04/16 04:05:07;;;;;;;35.78;22.73;;;11.90;1.00;;;;;;5046019;28;20059;-75
2022/04/16 04:07:35;;;;;;;32.80;22.00;;;12.00;1.00;;;;;;5027186;28;20041;-77
2022/04/16 04:10:04;;;;;;;32.50;21.88;;;12.00;1.00;;;;;;5018492;28;20504;-76
2022/04/16 04:12:32;;;;;;;36.42;23.13;;;12.10;1.00;;;;;;5017074;28;20052;-75
2022/04/16 04:14:59;;;;;;;33.85;22.00;;;12.20;1.00;;;;;;5033986;28;20076;-75
2022/04/16 04:17:27;;;;;;;34.45;21.48;;;12.20;1.00;;;;;;5034042;28;20049;-76
2022/04/16 04:19:54;;;;;;;31.70;20.90;;;12.20;1.00;;;;;;5034260;28;20133;-75
2022/04/16 04:22:22;;;;;;;31.75;21.98;;;12.20;1.00;;;;;;5016420;28;20049;-76
2022/04/16 04:24:49;;;;;;;31.02;21.48;;;12.20;1.00;;;;;;5033992;28;20050;-76
2022/04/16 04:27:18;;;;;;;38.83;23.88;;;12.20;1.00;;;;;;5016857;28;20053;-75
2022/04/16 04:29:45;;;;;;;41.83;23.92;;;12.30;1.00;;;;;;5033622;28;20050;-76
2022/04/16 04:32:13;;;;;;;31.77;20.48;;;12.30;1.00;;;;;;5034216;28;20415;-76
2022/04/16 04:34:40;;;;;;;31.90;19.05;;;12.40;1.00;;;;;;5034516;28;20508;-77
2022/04/16 04:37:07;;;;;;;30.15;19.58;;;12.40;1.00;;;;;;5033970;28;20402;-75
2022/04/16 04:39:35;;;;;;;28.88;17.30;;;12.50;1.00;;;;;;5016478;28;20420;-76
2022/04/16 04:42:02;;;;;;;28.98;17.13;;;12.60;1.00;;;;;;5034305;28;20068;-77
2022/04/16 04:44:31;;;;;;;30.23;18.10;;;12.60;1.00;;;;;;5034828;28;20047;-76
2022/04/16 04:46:58;;;;;;;39.97;18.15;;;12.70;1.00;;;;;;5015708;28;20133;-76
2022/04/16 04:49:26;;;;;;;28.65;18.08;;;12.80;1.00;;;;;;5034753;28;20042;-77
2022/04/16 04:51:53;;;;;;;30.75;18.50;;;12.80;1.00;;;;;;5016557;28;20045;-77
2022/04/16 04:54:21;;;;;;;29.30;18.40;;;12.80;1.00;;;;;;5036361;28;20052;-77
2022/04/16 04:56:48;;;;;;;42.13;19.00;;;12.80;1.00;;;;;;5038069;28;20053;-76
2022/04/16 04:59:16;;;;;;;26.63;16.08;;;12.80;1.00;;;;;;5040959;28;20045;-76
2022/04/16 05:01:45;;;;;;;26.33;16.58;;;12.90;1.00;;;;;;5021652;28;20052;-75
2022/04/16 05:04:12;;;;;;;24.20;16.92;;;12.80;1.00;;;;;;5019386;28;20042;-75
2022/04/16 05:06:39;;;;;;;28.95;16.23;;;12.80;1.00;;;;;;5037935;28;20393;-76
2022/04/16 05:09:07;;;;;;;30.50;16.83;;;12.90;1.00;;;;;;5019054;28;20049;-77
2022/04/16 05:11:34;;;;;;;25.90;14.90;;;12.90;1.00;;;;;;5018789;28;20038;-76
2022/04/16 05:14:02;;;;;;;22.02;14.45;;;13.00;1.00;;;;;;5034774;28;20128;-75
2022/04/16 05:16:29;;;;;;;22.92;14.93;;;13.00;1.00;;;;;;5037661;28;20045;-77
2022/04/16 05:18:58;;;;;;;22.90;14.02;;;13.00;1.00;;;;;;5037313;28;20045;-75
2022/04/16 05:21:26;;;;;;;20.50;13.65;;;13.00;1.00;;;;;;5036950;28;20045;-77
2022/04/16 05:23:53;;;;;;;21.33;13.52;;;13.10;1.00;;;;;;5036531;28;20069;-76
2022/04/16 05:26:20;;;;;;;21.70;13.65;;;13.10;1.00;;;;;;5000398;28;20053;-77
2022/04/16 05:28:48;;;;;;;25.15;13.13;;;13.10;1.00;;;;;;5018363;28;20065;-75
2022/04/16 05:31:19;;;;;;;21.75;14.25;;;13.10;1.00;;;;;;5025189;28;20042;-76
2022/04/16 05:36:32;;;;;;;24.73;15.23;;;13.20;1.00;;;;;;5036619;28;20057;-77
2022/04/16 05:39:00;;;;;;;21.25;14.55;;;13.10;1.00;;;;;;5037118;28;20037;-76
2022/04/16 05:41:33;;;;;;;20.48;13.90;;;13.10;1.00;;;;;;5036863;28;20040;-77
2022/04/16 05:44:01;;;;;;;22.63;13.95;;;13.20;1.00;;;;;;5036623;28;20057;-76
2022/04/16 05:46:29;;;;;;;20.70;13.35;;;13.30;1.00;;;;;;5036200;28;20048;-75
2022/04/16 05:48:56;;;;;;;20.63;14.13;;;13.40;1.00;;;;;;5035864;28;20041;-76
2022/04/16 05:51:26;;;;;;;21.05;13.13;;;13.40;1.00;;;;;;5019771;28;20060;-76
2022/04/16 05:53:55;;;;;;;23.27;14.63;;;13.60;1.00;;;;;;5035976;28;20040;-77
2022/04/16 05:56:23;;;;;;;23.90;15.52;;;13.70;1.00;;;;;;5036912;28;20157;-75
2022/04/16 05:58:50;;;;;;;25.05;16.67;;;13.80;99.90;;;;;;5007904;28;20409;-76
2022/04/16 06:01:18;;;;;;;29.10;15.98;;;13.80;99.90;;;;;;5038819;28;20050;-76
2022/04/16 06:03:46;;;;;;;33.83;15.95;;;13.80;99.90;;;;;;5037980;28;20049;-77
2022/04/16 06:06:13;;;;;;;21.38;14.23;;;13.90;99.90;;;;;;5037822;28;20042;-78
2022/04/16 06:08:45;;;;;;;19.27;13.13;;;14.00;99.90;;;;;;5021421;28;20049;-76
2022/04/16 06:11:17;;;;;;;20.45;13.13;;;14.00;87.40;;;;;;5009305;28;20140;-77
2022/04/16 06:13:45;;;;;;;21.25;14.05;;;14.00;58.50;;;;;;5020755;28;20119;-76
2022/04/16 06:16:12;;;;;;;19.30;14.85;;;14.00;1.00;;;;;;5038289;28;20099;-77
2022/04/16 06:18:40;;;;;;;28.88;16.58;;;14.00;1.00;;;;;;5045953;28;20069;-77
2022/04/16 06:21:13;;;;;;;28.65;17.30;;;13.90;1.00;;;;;;5040699;28;20068;-76
2022/04/16 06:23:40;;;;;;;31.10;19.02;;;14.00;1.00;;;;;;5038146;28;20041;-76
2022/04/16 06:26:08;;;;;;;32.38;19.05;;;14.00;1.00;;;;;;5036693;28;20041;-75
2022/04/16 06:28:37;;;;;;;25.65;17.58;;;13.90;1.00;;;;;;5036615;28;20076;-76
2022/04/16 06:31:04;;;;;;;23.27;14.20;;;13.90;1.00;;;;;;5038390;28;20037;-76
2022/04/16 06:33:32;;;;;;;23.92;10.52;;;14.00;1.00;;;;;;5036128;28;20497;-76
2022/04/16 06:35:59;;;;;;;10.30;6.55;;;14.00;1.00;;;;;;5020941;28;20057;-75
2022/04/16 06:38:29;;;;;;;8.68;6.05;;;14.00;99.90;;;;;;5044836;28;20049;-76
2022/04/16 06:40:57;;;;;;;8.45;4.63;;;14.00;99.90;;;;;;5041052;28;20080;-75
2022/04/16 06:43:24;;;;;;;9.27;4.43;;;14.00;99.90;;;;;;5036578;28;20045;-76
2022/04/16 06:45:53;;;;;;;6.20;4.32;;;13.90;85.80;;;;;;5018347;28;20114;-76
2022/04/16 06:48:21;;;;;;;7.18;4.68;;;13.80;50.50;;;;;;5036490;28;20085;-77
2022/04/16 06:50:48;;;;;;;6.50;4.75;;;13.60;37.50;;;;;;5018104;28;20056;-76
2022/04/16 06:53:16;;;;;;;7.55;4.85;;;13.40;42.00;;;;;;5035704;28;20046;-75
2022/04/16 06:55:46;;;;;;;7.60;4.38;;;13.40;53.50;;;;;;5035385;28;20037;-75
2022/04/16 06:58:25;;;;;;;6.28;4.70;;;13.40;68.00;;;;;;5019308;28;20045;-76
2022/04/16 07:01:15;;;;;;;8.55;4.40;;;13.40;65.20;;;;;;5035683;28;20075;-77
2022/04/16 07:03:43;;;;;;;10.48;5.20;;;13.30;90.40;;;;;;5035676;28;20045;-75
2022/04/16 07:06:10;;;;;;;8.85;6.05;;;13.30;99.90;;;;;;5035875;28;20041;-76
2022/04/16 07:08:37;;;;;;;9.25;5.90;;;13.40;99.90;;;;;;5035771;28;20037;-77
2022/04/16 07:11:05;;;;;;;8.80;5.75;;;13.20;99.90;;;;;;5035050;28;20044;-78
2022/04/16 07:13:32;;;;;;;7.93;4.85;;;13.00;99.90;;;;;;5035258;28;20045;-77
2022/04/16 07:15:59;;;;;;;9.55;5.20;;;13.00;99.90;;;;;;5018113;28;20057;-76
2022/04/16 07:18:28;;;;;;;6.25;4.18;;;12.80;99.90;;;;;;5036506;28;20045;-75
2022/04/16 07:20:56;;;;;;;7.05;4.93;;;12.60;99.90;;;;;;5035830;28;20598;-77
2022/04/16 07:23:23;;;;;;;8.32;5.97;;;12.50;99.90;;;;;;5035962;28;20099;-77
2022/04/16 07:25:50;;;;;;;7.18;5.03;;;12.40;99.90;;;;;;5036214;28;20040;-77
2022/04/16 07:28:22;;;;;;;8.40;5.57;;;12.20;99.90;;;;;;5035157;28;20049;-77
2022/04/16 07:30:50;;;;;;;6.95;5.43;;;12.00;99.90;;;;;;5034830;28;20515;-77
2022/04/16 07:33:18;;;;;;;10.35;6.57;;;11.80;99.90;;;;;;5034269;28;20037;-76
2022/04/16 07:35:47;;;;;;;14.50;8.43;;;11.80;99.90;;;;;;5034568;28;20052;-77
2022/04/16 07:38:14;;;;;;;16.20;11.68;;;11.80;99.90;;;;;;5022966;28;20588;-77
2022/04/16 07:40:42;;;;;;;11.57;8.52;;;11.90;99.90;;;;;;5016029;28;20065;-76
2022/04/16 07:43:09;;;;;;;12.38;8.35;;;11.90;99.90;;;;;;5034461;28;20124;-76
2022/04/16 07:45:37;;;;;;;9.82;6.82;;;12.00;99.90;;;;;;5017613;28;20092;-76
2022/04/16 07:48:05;;;;;;;8.65;5.47;;;12.10;99.90;;;;;;5026439;28;20048;-75
2022/04/16 07:50:33;;;;;;;9.63;6.13;;;12.20;99.90;;;;;;4998065;28;20053;-76
2022/04/16 07:53:02;;;;;;;10.07;6.43;;;12.30;99.90;;;;;;5027976;28;20037;-77
2022/04/16 07:55:31;;;;;;;8.35;5.88;;;12.50;99.90;;;;;;5037652;28;20060;-76
2022/04/16 07:57:59;;;;;;;10.52;6.45;;;12.90;99.90;;;;;;5033666;28;20436;-75
2022/04/16 08:00:27;;;;;;;9.00;7.13;;;13.10;99.90;;;;;;5016418;28;20042;-76
2022/04/16 08:02:54;;;;;;;10.38;7.57;;;13.30;99.90;;;;;;5033599;28;20044;-76
2022/04/16 08:05:21;;;;;;;9.40;7.53;;;13.60;99.90;;;;;;5034909;28;20046;-77
2022/04/16 08:07:50;;;;;;;11.75;8.20;;;13.70;99.90;;;;;;5047295;28;20039;-76
2022/04/16 08:10:19;;;;;;;15.45;11.73;;;13.80;99.90;;;;;;5054788;28;20118;-76
2022/04/16 08:12:46;;;;;;;17.10;11.40;;;14.00;99.90;;;;;;5040009;28;20029;-76
2022/04/16 08:15:13;;;;;;;15.55;10.52;;;14.20;99.90;;;;;;5023167;28;20041;-76
2022/04/16 08:17:41;;;;;;;11.77;9.20;;;14.60;99.90;;;;;;5025552;28;20054;-75
2022/04/16 08:20:10;;;;;;;13.93;9.50;;;14.70;99.90;;;;;;5044010;28;20092;-77
2022/04/16 08:22:40;;;;;;;11.23;8.30;;;14.80;99.90;;;;;;5045543;28;20353;-75
2022/04/16 08:27:55;;;;;;;13.80;8.23;;;15.00;21.40;;;;;;5033515;28;20049;-76
2022/04/16 08:30:22;;;;;;;10.90;9.23;;;15.10;1.60;;;;;;5046601;28;20100;-76
2022/04/16 08:32:50;;;;;;;13.95;9.95;;;15.10;1.00;;;;;;5045060;28;20543;-75
2022/04/16 08:35:18;;;;;;;11.68;8.77;;;15.00;1.00;;;;;;5036347;28;20042;-76
2022/04/16 08:37:47;;;;;;;11.07;8.15;;;15.20;1.00;;;;;;5034013;28;20046;-76
2022/04/16 08:40:16;;;;;;;9.10;7.57;;;15.40;1.00;;;;;;5034526;28;20034;-76
2022/04/16 08:42:45;;;;;;;11.48;8.50;;;15.80;1.00;;;;;;5032586;28;20037;-75
2022/04/16 08:45:14;;;;;;;10.55;6.93;;;16.10;1.00;;;;;;5033798;28;20055;-76
2022/04/16 08:47:43;;;;;;;11.80;7.95;;;16.40;1.00;;;;;;5033760;28;20053;-76
2022/04/16 08:50:12;;;;;;;8.68;6.88;;;16.50;1.00;;;;;;5034547;28;20045;-77
2022/04/16 08:52:40;;;;;;;9.88;6.72;;;16.40;1.00;;;;;;5014352;28;20041;-76
2022/04/16 08:55:13;;;;;;;12.20;8.25;;;16.30;1.00;;;;;;5014564;28;20573;-76
2022/04/16 08:57:41;;;;;;;10.07;6.90;;;16.30;1.00;;;;;;4996828;28;20112;-76
2022/04/16 09:00:13;;;;;;;9.70;6.30;;;16.50;1.00;;;;;;5014767;28;20046;-78
2022/04/16 09:02:56;;;;;;;9.27;6.68;;;16.30;1.00;;;;;;5013609;28;20049;-77
2022/04/16 09:05:24;;;;;;;10.73;7.22;;;16.10;1.00;;;;;;5015252;28;20394;-78
2022/04/16 09:07:53;;;;;;;9.73;6.60;;;16.10;1.00;;;;;;4996755;28;20424;-77
2022/04/16 09:10:22;;;;;;;8.63;7.13;;;16.20;1.00;;;;;;5015121;28;20050;-77
2022/04/16 09:12:52;;;;;;;10.55;6.90;;;16.20;1.00;;;;;;5014064;28;20042;-78
2022/04/16 09:15:20;;;;;;;9.23;5.57;;;16.40;1.00;;;;;;5015540;28;20038;-76
2022/04/16 09:18:00;;;;;;;10.23;6.30;;;16.70;1.00;;;;;;5014678;28;20053;-79
2022/04/16 09:20:36;;;;;;;10.38;7.18;;;16.90;1.00;;;;;;5014345;28;20050;-75
2022/04/16 09:23:16;;;;;;;8.73;6.78;;;16.70;1.00;;;;;;5014585;28;20054;-76
2022/04/16 09:25:45;;;;;;;9.93;6.65;;;16.70;1.00;;;;;;5015184;28;20046;-76
2022/04/16 09:28:15;;;;;;;14.73;10.30;;;16.70;1.00;;;;;;4997860;28;20053;-76
2022/04/16 09:30:50;;;;;;;14.40;7.93;;;16.90;1.00;;;;;;5015247;28;20050;-77
2022/04/16 09:33:19;;;;;;;11.63;8.00;;;17.00;1.00;;;;;;5014478;28;20052;-76
2022/04/16 09:35:47;;;;;;;15.32;10.45;;;17.00;1.00;;;;;;5013807;28;20046;-75
2022/04/16 09:38:15;;;;;;;14.25;8.95;;;17.10;1.00;;;;;;5015544;28;20046;-76
2022/04/16 09:40:46;;;;;;;13.80;9.93;;;17.20;1.00;;;;;;5000001;28;20042;-76
2022/04/16 09:43:13;;;;;;;11.18;8.52;;;17.20;1.00;;;;;;5018715;28;20129;-76
2022/04/16 09:45:42;;;;;;;12.02;8.77;;;17.10;1.00;;;;;;5019907;28;20117;-76
2022/04/16 09:48:11;;;;;;;12.05;8.50;;;17.10;1.00;;;;;;5019669;28;20053;-76
2022/04/16 09:50:42;;;;;;;12.20;8.63;;;16.90;1.00;;;;;;5002897;28;20116;-77
2022/04/16 09:53:11;;;;;;;15.18;10.02;;;16.80;1.00;;;;;;5020724;28;20038;-77
2022/04/16 09:55:39;;;;;;;12.88;9.70;;;17.00;1.00;;;;;;5020381;28;20045;-76
2022/04/16 09:58:17;;;;;;;13.18;9.10;;;17.20;1.00;;;;;;5020190;28;20132;-77
2022/04/16 10:00:44;;;;;;;15.52;9.70;;;17.20;1.00;;;;;;5020529;28;20073;-77
2022/04/16 10:03:17;;;;;;;10.40;8.25;;;17.40;1.00;;;;;;5028677;28;20041;-77
2022/04/16 10:05:47;;;;;;;12.93;9.43;;;17.40;1.00;;;;;;5011913;28;20080;-77
2022/04/16 10:08:15;;;;;;;16.02;10.80;;;17.00;1.00;;;;;;5010154;28;20056;-77
2022/04/16 10:10:46;;;;;;;16.73;11.73;;;17.00;1.00;;;;;;5009649;28;20049;-78
2022/04/16 10:13:17;;;;;;;12.05;8.13;;;17.10;1.00;;;;;;5025782;28;20069;-76
2022/04/16 10:15:55;;;;;;;11.65;7.60;;;17.20;1.00;;;;;;5019822;28;20579;-75
2022/04/16 10:18:23;;;;;;;8.55;5.53;;;17.30;1.00;;;;;;5000226;28;20070;-74
2022/04/16 10:20:54;;;;;;;8.93;5.65;;;17.60;1.00;;;;;;5016424;28;20231;-75
2022/04/16 10:23:31;;;;;;;7.20;3.88;;;17.40;1.00;;;;;;5016856;28;20441;-76
2022/04/16 10:26:07;;;;;;;7.28;5.53;;;17.50;1.00;;;;;;5017080;28;20069;-76
2022/04/16 10:28:40;;;;;;;6.65;4.28;;;17.80;1.00;;;;;;5017313;28;20057;-75
2022/04/16 10:31:20;;;;;;;5.68;3.72;;;18.10;1.00;;;;;;5016126;28;20580;-75
2022/04/16 10:33:58;;;;;;;6.70;3.97;;;17.80;1.00;;;;;;5016480;28;20121;-76
2022/04/16 10:36:29;;;;;;;7.28;3.78;;;17.80;1.00;;;;;;5005508;28;20531;-76
2022/04/16 10:38:56;;;;;;;6.70;3.63;;;17.50;1.00;;;;;;5034340;28;20060;-74
2022/04/16 10:41:26;;;;;;;5.53;3.78;;;17.40;1.00;;;;;;5036013;28;20046;-75
2022/04/16 10:43:59;;;;;;;4.65;3.30;;;17.30;1.00;;;;;;5037394;28;20529;-75
2022/04/16 10:46:41;;;;;;;4.68;3.45;;;16.90;1.00;;;;;;5046181;28;20052;-76
2022/04/16 10:49:12;;;;;;;4.53;3.00;;;16.70;1.00;;;;;;5038180;28;20045;-76
2022/04/16 10:51:42;;;;;;;6.55;3.90;;;16.50;1.00;;;;;;5049169;28;20481;-76
2022/04/16 10:54:10;;;;;;;6.10;3.30;;;16.50;1.00;;;;;;5059103;28;20059;-75
2022/04/16 10:56:39;;;;;;;4.85;3.42;;;16.40;1.00;;;;;;5041748;28;20041;-76
2022/04/16 10:59:08;;;;;;;8.57;4.00;;;16.40;1.00;;;;;;5056464;28;20041;-75
2022/04/16 11:01:36;;;;;;;6.50;3.63;;;16.50;1.00;;;;;;5055415;28;20094;-74
2022/04/16 11:04:14;;;;;;;8.20;4.93;;;16.90;1.00;;;;;;5058031;28;20041;-76
2022/04/16 11:06:51;;;;;;;5.32;3.17;;;17.30;1.00;;;;;;5061009;28;20048;-75
2022/04/16 11:09:21;;;;;;;;;;;17.50;1.00;;;;;;5056047;28;20052;-75
2022/04/16 11:11:52;;;;;;;5.35;3.53;;;17.80;1.00;;;;;;5051211;28;19921;-77
2022/04/16 11:14:20;;;;;;;4.85;3.72;;;18.10;1.00;;;;;;5047800;28;20472;-75
2022/04/16 11:16:47;;;;;;;4.97;3.88;;;18.10;1.00;;;;;;5062115;28;20045;-76
2022/04/16 11:19:17;;;;;;;4.75;3.05;;;18.30;1.00;;;;;;5058648;28;20041;-76
2022/04/16 11:21:45;;;;;;;5.18;3.42;;;18.00;1.00;;;;;;5056755;28;20048;-77
2022/04/16 11:24:14;;;;;;;6.28;3.25;;;18.00;1.00;;;;;;5055712;28;20036;-76
2022/04/16 11:34:57;;;;;;;6.73;4.07;;;17.30;1.00;;;;;;5036534;28;20037;-75
2022/04/16 11:37:26;;;;;;;6.00;3.38;;;17.30;1.00;;;;;;5033182;28;20358;-75
2022/04/16 11:40:01;;;;;;;6.25;3.60;;;17.20;1.00;;;;;;5035727;28;20497;-75
2022/04/16 11:42:29;;;;;;;6.72;2.67;;;17.10;1.00;;;;;;5035703;28;20113;-77
2022/04/16 11:44:58;;;;;;;7.22;3.05;;;17.10;1.00;;;;;;5036411;28;20120;-75
2022/04/16 11:47:28;;;;;;;4.25;2.90;;;16.70;1.00;;;;;;5016966;28;20042;-76
2022/04/16 11:49:57;;;;;;;7.57;3.22;;;16.90;1.00;;;;;;5020942;28;20050;-75
2022/04/16 11:52:30;;;;;;;6.28;3.53;;;17.50;1.00;;;;;;5034594;28;20464;-76
2022/04/16 11:55:02;;;;;;;3.97;2.20;;;17.80;1.00;;;;;;5016130;28;20110;-74
2022/04/16 11:57:29;;;;;;;5.72;2.50;;;17.80;1.00;;;;;;5034879;28;20120;-74
2022/04/16 11:59:58;;;;;;;3.22;2.00;;;17.50;1.00;;;;;;5016484;28;20120;-75
2022/04/16 12:02:31;;;;;;;3.90;2.30;;;16.80;1.00;;;;;;5033363;28;20042;-75
2022/04/16 12:05:11;;;;;;;6.22;2.95;;;16.80;1.00;;;;;;5015758;28;20045;-75
2022/04/16 12:07:43;;;;;;;4.57;2.45;;;17.00;1.00;;;;;;5020134;28;20119;-75
2022/04/16 12:10:13;;;;;;;4.13;1.80;;;17.40;1.00;;;;;;5033189;28;20053;-76
2022/04/16 12:12:47;;;;;;;8.13;4.32;;;17.70;1.00;;;;;;5033698;28;20096;-75
2022/04/16 12:15:22;;;;;;;7.60;4.85;;;18.00;1.00;;;;;;5033876;28;20045;-75
2022/04/16 12:17:50;;;;;;;16.60;6.87;;;18.20;1.00;;;;;;5034766;28;20406;-76
2022/04/16 12:20:20;;;;;;;8.95;5.40;;;18.20;1.00;;;;;;5033872;28;20045;-77
2022/04/16 12:22:51;;;;;;;4.50;2.38;;;18.40;1.00;;;;;;5016990;28;20048;-75
2022/04/16 12:25:20;;;;;;;5.10;3.03;;;18.10;1.00;;;;;;5035596;28;20497;-80
2022/04/16 12:27:48;;;;;;;6.35;3.58;;;18.00;1.00;;;;;;5036631;28;20447;-75
2022/04/16 12:30:18;;;;;;;5.82;3.00;;;18.20;1.00;;;;;;5034839;28;20061;-75
2022/04/16 12:32:56;;;;;;;3.47;2.33;;;18.40;1.00;;;;;;5015090;28;20049;-76
2022/04/16 12:35:25;;;;;;;2.58;1.50;;;18.30;1.00;;;;;;5016926;28;20042;-75
2022/04/16 12:37:54;;;;;;;3.85;1.83;;;18.10;1.00;;;;;;5052668;28;20524;-75
2022/04/16 12:40:22;;;;;;;3.25;2.08;;;18.10;1.00;;;;;;5053646;28;20052;-76
2022/04/16 12:42:53;;;;;;;3.35;1.40;;;18.20;1.00;;;;;;5053959;28;20056;-75
2022/04/16 12:45:22;;;;;;;4.63;2.10;;;18.30;1.00;;;;;;5053549;28;20124;-75
2022/04/16 12:47:49;;;;;;;3.92;1.58;;;18.20;1.00;;;;;;5054426;28;20114;-75
2022/04/16 12:50:17;;;;;;;3.35;2.10;;;18.20;1.00;;;;;;5056713;28;20045;-74
2022/04/16 12:52:47;;;;;;;4.03;2.10;;;18.40;1.00;;;;;;5035695;28;20152;-74
2022/04/16 12:55:16;;;;;;;4.40;2.30;;;18.30;1.00;;;;;;5053731;28;20226;-74
2022/04/16 12:57:44;;;;;;;7.78;2.35;;;18.20;1.00;;;;;;5055621;28;20044;-75
2022/04/16 13:00:14;;;;;;;8.65;2.63;;;18.20;1.00;;;;;;5061391;28;20063;-77
2022/04/16 13:02:43;;;;;;;6.63;1.80;;;18.20;1.00;;;;;;5065850;28;20099;-76
2022/04/16 13:05:12;;;;;;;5.72;3.13;;;18.20;1.00;;;;;;5054877;28;20124;-75
2022/04/16 13:07:40;;;;;;;4.97;2.08;;;18.10;1.00;;;;;;5053828;28;20083;-76
2022/04/16 13:10:08;;;;;;;4.50;2.25;;;18.10;1.00;;;;;;5035512;28;20515;-75
2022/04/16 13:12:38;;;;;;;4.63;2.40;;;17.80;1.00;;;;;;5054025;28;20041;-73
2022/04/16 13:15:06;;;;;;;4.93;2.22;;;17.80;1.00;;;;;;5055139;28;20049;-75
2022/04/16 13:17:35;;;;;;;4.35;1.67;;;17.60;1.00;;;;;;5057559;28;20041;-74